createdAt,value
2018-09-02T00:02:22.928Z,102916.98
2018-09-02T00:04:51.750Z,102920.80
2018-09-02T00:07:20.538Z,102917.78
2018-09-02T00:09:49.431Z,102924.69
2018-09-02T00:12:18.222Z,102921.73
2018-09-02T00:14:47.020Z,102917.95
2018-09-02T00:17:15.871Z,102922.13
2018-09-02T00:19:44.634Z,102919.54
2018-09-02T00:22:13.515Z,102921.13
2018-09-02T00:24:42.384Z,102919.92
2018-09-02T00:27:11.491Z,102922.92
2018-09-02T00:29:40.284Z,102916.47
2018-09-02T00:32:09.103Z,102911.81
2018-09-02T00:34:37.992Z,102918.45
2018-09-02T00:37:06.852Z,102916.64
2018-09-02T00:39:35.627Z,102919.92
2018-09-02T00:42:04.520Z,102916.84
2018-09-02T00:44:33.286Z,102911.37
2018-09-02T00:47:02.178Z,102903.09
2018-09-02T00:49:30.968Z,102912.42
2018-09-02T00:51:59.803Z,102909.22
2018-09-02T00:54:28.547Z,102909.92
2018-09-02T00:56:57.456Z,102902.98
2018-09-02T00:59:26.337Z,102906.05
2018-09-02T01:01:55.164Z,102909.92
2018-09-02T01:04:23.967Z,102910.97
2018-09-02T01:06:52.775Z,102915.86
2018-09-02T01:09:21.554Z,102922.48
2018-09-02T01:11:50.438Z,102920.38
2018-09-02T01:14:19.225Z,102914.81
2018-09-02T01:16:48.071Z,102913.53
2018-09-02T01:19:16.871Z,102919.13
2018-09-02T01:21:45.755Z,102921.87
2018-09-02T01:24:14.578Z,102928.16
2018-09-02T01:26:43.383Z,102926.23
2018-09-02T01:29:12.326Z,102928.67
2018-09-02T01:31:41.083Z,102927.45
2018-09-02T01:34:10.516Z,102931.16
2018-09-02T01:36:39.350Z,102928.91
2018-09-02T01:39:08.702Z,102919.06
2018-09-02T01:41:37.760Z,102924.81
2018-09-02T01:44:06.567Z,102926.34
2018-09-02T01:46:35.299Z,102937.07
2018-09-02T01:49:04.227Z,102933.78
2018-09-02T01:51:32.992Z,102931.83
2018-09-02T01:54:01.836Z,102924.20
2018-09-02T01:56:30.915Z,102933.11
2018-09-02T01:58:59.714Z,102931.51
2018-09-02T02:01:28.554Z,102934.48
2018-09-02T02:03:57.732Z,102933.63
2018-09-02T02:06:26.534Z,102924.95
2018-09-02T02:08:55.363Z,102925.94
2018-09-02T02:11:24.152Z,102925.80
2018-09-02T02:13:53.055Z,102929.56
2018-09-02T02:16:21.829Z,102927.95
2018-09-02T02:18:50.639Z,102925.67
2018-09-02T02:21:19.432Z,102925.22
2018-09-02T02:23:48.370Z,102926.59
2018-09-02T02:26:17.219Z,102921.75
2018-09-02T02:28:46.025Z,102925.56
2018-09-02T02:31:14.837Z,102927.59
2018-09-02T02:33:43.599Z,102933.84
2018-09-02T02:36:12.407Z,102932.61
2018-09-02T02:38:41.295Z,102932.33
2018-09-02T02:41:10.132Z,102936.02
2018-09-02T02:43:38.892Z,102935.34
2018-09-02T02:46:07.730Z,102925.52
2018-09-02T02:48:36.509Z,102920.05
2018-09-02T02:51:05.478Z,102922.25
2018-09-02T02:53:34.236Z,102918.75
2018-09-02T02:56:03.044Z,102924.12
2018-09-02T02:58:31.898Z,102928.20
2018-09-02T03:01:00.837Z,102921.61
2018-09-02T03:03:29.695Z,102927.53
2018-09-02T03:05:58.575Z,102925.19
2018-09-02T03:08:27.331Z,102919.79
2018-09-02T03:10:56.154Z,102926.14
2018-09-02T03:13:24.947Z,102931.61
2018-09-02T03:15:53.807Z,102926.36
2018-09-02T03:18:22.600Z,102926.44
2018-09-02T03:20:51.418Z,102928.64
2018-09-02T03:23:20.175Z,102928.06
2018-09-02T03:25:49.274Z,102922.98
2018-09-02T03:28:18.138Z,102927.86
2018-09-02T03:30:46.943Z,102926.97
2018-09-02T03:33:15.779Z,102933.83
2018-09-02T03:35:44.570Z,102933.05
2018-09-02T03:38:13.491Z,102939.33
2018-09-02T03:40:42.414Z,102940.35
2018-09-02T03:43:11.312Z,102941.98
2018-09-02T03:45:40.091Z,102946.03
2018-09-02T03:48:08.935Z,102937.83
2018-09-02T03:50:37.724Z,102938.73
2018-09-02T03:53:06.606Z,102939.05
2018-09-02T03:55:35.600Z,102943.48
2018-09-02T03:58:04.483Z,102937.17
2018-09-02T04:00:33.362Z,102940.61
2018-09-02T04:03:02.216Z,102936.93
2018-09-02T04:05:31.065Z,102936.66
2018-09-02T04:07:59.968Z,102934.95
2018-09-02T04:10:28.767Z,102926.12
2018-09-02T04:12:57.719Z,102934.55
2018-09-02T04:15:26.487Z,102930.66
2018-09-02T04:17:55.412Z,102935.05
2018-09-02T04:20:29.782Z,102937.86
2018-09-02T04:22:58.612Z,102939.05
2018-09-02T04:25:27.876Z,102931.84
2018-09-02T04:27:59.787Z,102935.16
2018-09-02T04:30:29.141Z,102927.22
2018-09-02T04:32:58.183Z,102929.82
2018-09-02T04:35:27.031Z,102927.52
2018-09-02T04:37:55.865Z,102925.09
2018-09-02T04:40:24.822Z,102922.13
2018-09-02T04:42:53.616Z,102928.02
2018-09-02T04:45:22.595Z,102929.15
2018-09-02T04:47:51.410Z,102929.64
2018-09-02T04:50:21.011Z,102924.66
2018-09-02T04:52:50.062Z,102920.97
2018-09-02T04:55:18.927Z,102918.74
2018-09-02T04:57:48.305Z,102917.62
2018-09-02T05:00:17.162Z,102923.12
2018-09-02T05:02:45.934Z,102919.44
2018-09-02T05:05:14.833Z,102924.14
2018-09-02T05:07:43.612Z,102922.17
2018-09-02T05:10:12.497Z,102924.34
2018-09-02T05:12:41.402Z,102929.50
2018-09-02T05:15:10.321Z,102936.48
2018-09-02T05:17:39.223Z,102938.73
2018-09-02T05:20:08.139Z,102936.73
2018-09-02T05:22:37.039Z,102940.97
2018-09-02T05:25:05.987Z,102944.33
2018-09-02T05:27:34.909Z,102940.58
2018-09-02T05:30:03.972Z,102936.83
2018-09-02T05:32:33.115Z,102939.14
2018-09-02T05:35:01.854Z,102936.95
2018-09-02T05:37:30.685Z,102941.23
2018-09-02T05:39:59.448Z,102944.09
2018-09-02T05:42:28.500Z,102946.82
2018-09-02T05:44:57.307Z,102940.24
2018-09-02T05:47:26.132Z,102946.58
2018-09-02T05:49:55.361Z,102940.00
2018-09-02T05:52:24.184Z,102945.07
2018-09-02T05:54:53.081Z,102949.38
2018-09-02T05:57:21.923Z,102951.27
2018-09-02T05:59:50.709Z,102956.58
2018-09-02T06:02:19.616Z,102952.66
2018-09-02T06:04:48.372Z,102955.75
2018-09-02T06:07:17.242Z,102950.57
2018-09-02T06:09:46.341Z,102946.73
2018-09-02T06:12:15.170Z,102954.33
2018-09-02T06:14:43.984Z,102943.99
2018-09-02T06:17:12.908Z,102942.86
2018-09-02T06:19:41.765Z,102937.39
2018-09-02T06:22:10.817Z,102942.18
2018-09-02T06:24:39.665Z,102935.69
2018-09-02T06:27:08.448Z,102938.75
2018-09-02T06:29:37.278Z,102933.26
2018-09-02T06:32:06.185Z,102927.92
2018-09-02T06:34:35.101Z,102934.15
2018-09-02T06:37:03.901Z,102932.14
2018-09-02T06:39:32.798Z,102932.70
2018-09-02T06:42:01.625Z,102932.42
2018-09-02T06:44:30.552Z,102925.19
2018-09-02T06:46:59.336Z,102934.34
2018-09-02T06:49:28.213Z,102932.71
2018-09-02T06:51:57.114Z,102933.75
2018-09-02T06:54:26.033Z,102931.66
2018-09-02T06:56:55.184Z,102937.16
2018-09-02T06:59:24.085Z,102928.28
2018-09-02T07:01:52.918Z,102925.27
2018-09-02T07:04:21.804Z,102926.52
2018-09-02T07:06:50.746Z,102923.02
2018-09-02T07:09:19.540Z,102919.38
2018-09-02T07:11:48.361Z,102917.23
2018-09-02T07:14:17.226Z,102913.95
2018-09-02T07:16:46.032Z,102919.70
2018-09-02T07:19:14.819Z,102927.91
2018-09-02T07:21:43.915Z,102925.84
2018-09-02T07:24:12.734Z,102926.46
2018-09-02T07:26:41.574Z,102930.35
2018-09-02T07:29:10.351Z,102925.52
2018-09-02T07:31:39.199Z,102928.91
2018-09-02T07:34:08.077Z,102926.81
2018-09-02T07:36:36.929Z,102928.03
2018-09-02T07:39:07.540Z,102928.13
2018-09-02T07:41:37.032Z,102919.86
2018-09-02T07:44:06.122Z,102917.38
2018-09-02T07:46:34.972Z,102917.55
2018-09-02T07:49:03.830Z,102915.74
2018-09-02T07:51:32.833Z,102918.11
2018-09-02T07:54:01.616Z,102920.26
2018-09-02T07:56:30.380Z,102923.40
2018-09-02T07:58:59.228Z,102924.41
2018-09-02T08:01:28.016Z,102925.16
2018-09-02T08:03:56.847Z,102923.75
2018-09-02T08:06:25.635Z,102925.70
2018-09-02T08:08:54.480Z,102924.66
2018-09-02T08:11:23.333Z,102920.84
2018-09-02T08:13:52.243Z,102918.85
2018-09-02T08:16:20.995Z,102920.75
2018-09-02T08:18:49.808Z,102916.22
2018-09-02T08:21:18.564Z,102919.19
2018-09-02T08:23:47.503Z,102913.22
2018-09-02T08:26:16.362Z,102917.77
2018-09-02T08:28:45.235Z,102921.92
2018-09-02T08:31:14.273Z,102921.77
2018-09-02T08:33:43.088Z,102918.08
2018-09-02T08:36:11.904Z,102918.08
2018-09-02T08:38:40.796Z,102910.97
2018-09-02T08:41:10.520Z,102915.24
2018-09-02T08:43:39.356Z,102914.81
2018-09-02T08:46:08.143Z,102910.36
2018-09-02T08:48:37.051Z,102907.32
2018-09-02T08:51:06.420Z,102906.80
2018-09-02T08:53:35.282Z,102913.52
2018-09-02T08:56:04.138Z,102910.75
2018-09-02T08:58:32.932Z,102910.36
2018-09-02T09:01:01.829Z,102907.67
2018-09-02T09:03:30.695Z,102904.89
2018-09-02T09:05:59.545Z,102899.61
2018-09-02T09:08:28.614Z,102892.73
2018-09-02T09:10:59.067Z,102888.37
2018-09-02T09:13:27.938Z,102884.81
2018-09-02T09:15:56.776Z,102892.75
2018-09-02T09:18:25.572Z,102883.64
2018-09-02T09:20:54.411Z,102890.27
2018-09-02T09:23:23.169Z,102887.42
2018-09-02T09:25:52.075Z,102890.96
2018-09-02T09:28:20.855Z,102881.00
2018-09-02T09:30:49.684Z,102886.41
2018-09-02T09:33:18.466Z,102881.60
2018-09-02T09:35:47.380Z,102878.34
2018-09-02T09:38:16.263Z,102881.97
2018-09-02T09:40:45.099Z,102871.03
2018-09-02T09:43:13.948Z,102870.16
2018-09-02T09:45:42.779Z,102871.17
2018-09-02T09:48:11.603Z,102867.93
2018-09-02T09:50:40.457Z,102868.14
2018-09-02T09:53:09.357Z,102865.59
2018-09-02T09:55:38.185Z,102865.50
2018-09-02T09:58:07.191Z,102859.48
2018-09-02T10:00:52.204Z,102852.02
2018-09-02T10:03:21.934Z,102855.58
2018-09-02T10:05:50.699Z,102853.86
2018-09-02T10:08:19.528Z,102849.31
2018-09-02T10:10:48.299Z,102847.70
2018-09-02T10:13:17.134Z,102845.60
2018-09-02T10:15:45.975Z,102852.70
2018-09-02T10:18:14.878Z,102833.64
2018-09-02T10:20:43.648Z,102837.93
2018-09-02T10:23:12.824Z,102833.98
2018-09-02T10:25:41.626Z,102833.42
2018-09-02T10:28:11.025Z,102833.11
2018-09-02T10:30:39.892Z,102821.88
2018-09-02T10:33:08.742Z,102827.47
2018-09-02T10:35:37.548Z,102823.20
2018-09-02T10:38:06.474Z,102823.92
2018-09-02T10:40:35.320Z,102817.66
2018-09-02T10:43:04.482Z,102818.23
2018-09-02T10:45:33.280Z,102814.17
2018-09-02T10:48:02.476Z,102809.92
2018-09-02T10:50:31.259Z,102803.80
2018-09-02T10:53:00.182Z,102808.84
2018-09-02T10:55:29.070Z,102803.17
2018-09-02T10:57:57.847Z,102799.33
2018-09-02T11:00:26.926Z,102799.87
2018-09-02T11:02:55.716Z,102788.87
2018-09-02T11:05:24.628Z,102788.78
2018-09-02T11:07:53.451Z,102786.77
2018-09-02T11:10:22.276Z,102781.70
2018-09-02T11:12:51.058Z,102781.53
2018-09-02T11:15:19.992Z,102774.09
2018-09-02T11:17:48.923Z,102777.45
2018-09-02T11:20:17.873Z,102768.34
2018-09-02T11:22:46.678Z,102770.86
2018-09-02T11:25:15.512Z,102771.70
2018-09-02T11:27:44.287Z,102771.55
2018-09-02T11:30:13.147Z,102766.02
2018-09-02T11:32:42.083Z,102772.61
2018-09-02T11:35:10.899Z,102765.98
2018-09-02T11:37:39.949Z,102762.91
2018-09-02T11:40:08.771Z,102758.33
2018-09-02T11:42:38.036Z,102754.52
2018-09-02T11:45:07.070Z,102761.53
2018-09-02T11:47:35.815Z,102755.84
2018-09-02T11:50:05.219Z,102745.29
2018-09-02T11:52:34.004Z,102746.70
2018-09-02T11:55:02.879Z,102751.42
2018-09-02T11:57:31.811Z,102742.37
2018-09-02T12:00:00.568Z,102740.64
2018-09-02T12:02:29.399Z,102735.24
2018-09-02T12:04:58.217Z,102741.94
2018-09-02T12:07:27.201Z,102727.39
2018-09-02T12:09:55.973Z,102734.98
2018-09-02T12:12:24.803Z,102732.89
2018-09-02T12:14:53.718Z,102727.47
2018-09-02T12:17:22.505Z,102722.72
2018-09-02T12:19:51.336Z,102719.41
2018-09-02T12:22:20.159Z,102721.87
2018-09-02T12:24:48.971Z,102705.66
2018-09-02T12:27:17.775Z,102707.73
2018-09-02T12:29:46.799Z,102708.78
2018-09-02T12:32:15.668Z,102711.70
2018-09-02T12:34:44.475Z,102711.55
2018-09-02T12:37:13.284Z,102709.00
2018-09-02T12:39:42.080Z,102698.77
2018-09-02T12:42:10.990Z,102701.16
2018-09-02T12:44:39.771Z,102697.72
2018-09-02T12:47:08.557Z,102695.23
2018-09-02T12:49:37.377Z,102693.84
2018-09-02T12:52:06.336Z,102689.09
2018-09-02T12:54:35.138Z,102685.64
2018-09-02T12:57:04.035Z,102678.12
2018-09-02T12:59:33.053Z,102674.75
2018-09-02T13:02:01.883Z,102681.16
2018-09-02T13:04:30.747Z,102677.09
2018-09-02T13:06:59.518Z,102665.09
2018-09-02T13:09:28.507Z,102662.70
2018-09-02T13:11:57.239Z,102664.52
2018-09-02T13:14:26.644Z,102667.23
2018-09-02T13:16:55.451Z,102664.78
2018-09-02T13:19:24.282Z,102662.01
2018-09-02T13:21:53.426Z,102658.56
2018-09-02T13:24:22.220Z,102655.28
2018-09-02T13:26:51.082Z,102651.15
2018-09-02T13:29:20.112Z,102653.35
2018-09-02T13:31:49.118Z,102651.78
2018-09-02T13:34:17.893Z,102646.25
2018-09-02T13:36:46.898Z,102639.16
2018-09-02T13:39:15.676Z,102632.59
2018-09-02T13:41:44.512Z,102633.91
2018-09-02T13:44:13.663Z,102625.86
2018-09-02T13:46:42.594Z,102623.84
2018-09-02T13:49:11.363Z,102624.66
2018-09-02T13:51:40.522Z,102624.47
2018-09-02T13:54:09.235Z,102617.88
2018-09-02T13:56:38.005Z,102613.08
2018-09-02T13:59:07.069Z,102611.53
2018-09-02T14:01:35.865Z,102611.73
2018-09-02T14:04:04.674Z,102604.98
2018-09-02T14:06:34.000Z,102602.94
2018-09-02T14:09:02.968Z,102594.54
2018-09-02T14:11:31.788Z,102597.30
2018-09-02T14:14:00.975Z,102592.05
2018-09-02T14:16:29.728Z,102583.51
2018-09-02T14:18:58.572Z,102579.52
2018-09-02T14:21:27.639Z,102571.75
2018-09-02T14:23:56.551Z,102566.55
2018-09-02T14:26:25.436Z,102562.68
2018-09-02T14:28:54.365Z,102558.59
2018-09-02T14:31:23.156Z,102559.33
2018-09-02T14:33:51.934Z,102556.52
2018-09-02T14:36:20.929Z,102559.28
2018-09-02T14:38:50.208Z,102545.45
2018-09-02T14:41:18.974Z,102541.65
2018-09-02T14:43:48.161Z,102544.18
2018-09-02T14:46:16.996Z,102539.69
2018-09-02T14:48:45.809Z,102536.31
2018-09-02T14:51:14.871Z,102537.84
2018-09-02T14:53:43.693Z,102536.14
2018-09-02T14:56:12.564Z,102530.52
2018-09-02T14:58:41.589Z,102529.80
2018-09-02T15:01:10.483Z,102533.29
2018-09-02T15:03:39.543Z,102532.06
2018-09-02T15:06:08.603Z,102525.51
2018-09-02T15:08:37.467Z,102533.45
2018-09-02T15:11:06.306Z,102524.28
2018-09-02T15:13:35.583Z,102528.59
2018-09-02T15:16:04.456Z,102514.80
2018-09-02T15:18:33.319Z,102517.22
2018-09-02T15:21:02.325Z,102514.02
2018-09-02T15:23:31.104Z,102518.00
2018-09-02T15:25:59.955Z,102511.64
2018-09-02T15:28:29.038Z,102508.41
2018-09-02T15:30:57.921Z,102510.54
2018-09-02T15:33:26.786Z,102505.86
2018-09-02T15:35:55.631Z,102505.45
2018-09-02T15:38:24.616Z,102506.95
2018-09-02T15:40:53.443Z,102505.65
2018-09-02T15:43:22.243Z,102503.05
2018-09-02T15:45:51.140Z,102499.57
2018-09-02T15:48:19.930Z,102501.47
2018-09-02T15:50:48.803Z,102492.19
2018-09-02T15:53:17.604Z,102494.83
2018-09-02T15:55:46.424Z,102492.72
2018-09-02T15:58:15.188Z,102489.17
2018-09-02T16:00:44.387Z,102494.25
2018-09-02T16:03:13.219Z,102488.90
2018-09-02T16:05:42.150Z,102484.77
2018-09-02T16:08:10.935Z,102480.41
2018-09-02T16:10:39.760Z,102474.65
2018-09-02T16:13:08.526Z,102473.87
2018-09-02T16:15:37.419Z,102472.42
2018-09-02T16:18:06.296Z,102470.06
2018-09-02T16:20:35.852Z,102467.91
2018-09-02T16:23:04.687Z,102468.53
2018-09-02T16:25:33.536Z,102468.33
2018-09-02T16:28:02.372Z,102459.16
2018-09-02T16:30:31.311Z,102457.97
2018-09-02T16:33:00.167Z,102454.81
2018-09-02T16:35:28.954Z,102454.24
2018-09-02T16:37:57.755Z,102455.41
2018-09-02T16:40:26.615Z,102456.24
2018-09-02T16:42:55.472Z,102451.68
2018-09-02T16:45:24.495Z,102452.10
2018-09-02T16:47:53.317Z,102447.13
2018-09-02T16:50:22.089Z,102443.92
2018-09-02T16:52:50.993Z,102450.07
2018-09-02T16:55:19.743Z,102448.28
2018-09-02T16:57:48.539Z,102449.69
2018-09-02T17:00:17.291Z,102444.73
2018-09-02T17:02:46.092Z,102447.71
2018-09-02T17:05:24.563Z,102446.33
2018-09-02T17:07:53.402Z,102439.74
2018-09-02T17:10:22.150Z,102439.95
2018-09-02T17:12:51.158Z,102434.58
2018-09-02T17:15:19.896Z,102428.62
2018-09-02T17:17:48.754Z,102433.41
2018-09-02T17:20:23.757Z,102430.81
2018-09-02T17:22:56.179Z,102435.74
2018-09-02T17:25:25.121Z,102435.95
2018-09-02T17:27:53.941Z,102430.17
2018-09-02T17:30:22.704Z,102436.09
2018-09-02T17:32:52.368Z,102430.57
2018-09-02T17:35:21.144Z,102434.86
2018-09-02T17:37:50.061Z,102428.90
2018-09-02T17:40:18.863Z,102431.08
2018-09-02T17:42:47.883Z,102430.67
2018-09-02T17:45:22.521Z,102431.49
2018-09-02T17:47:51.431Z,102426.89
2018-09-02T17:50:20.324Z,102431.45
2018-09-02T17:52:49.102Z,102435.19
2018-09-02T17:55:17.908Z,102432.83
2018-09-02T17:57:46.818Z,102434.73
2018-09-02T18:00:18.835Z,102435.06
2018-09-02T18:02:47.604Z,102435.84
2018-09-02T18:05:16.711Z,102439.97
2018-09-02T18:07:45.571Z,102443.05
2018-09-02T18:10:14.411Z,102442.05
2018-09-02T18:12:43.266Z,102439.64
2018-09-02T18:15:13.222Z,102439.45
2018-09-02T18:17:42.003Z,102436.64
2018-09-02T18:20:11.086Z,102440.63
2018-09-02T18:22:39.884Z,102439.95
2018-09-02T18:25:08.825Z,102441.53
2018-09-02T18:27:40.028Z,102447.23
2018-09-02T18:30:09.047Z,102447.45
2018-09-02T18:32:37.849Z,102448.54
2018-09-02T18:35:07.114Z,102453.92
2018-09-02T18:37:35.932Z,102453.31
2018-09-02T18:40:05.896Z,102449.09
2018-09-02T18:42:34.924Z,102454.84
2018-09-02T18:45:09.838Z,102447.66
2018-09-02T18:47:39.159Z,102456.95
2018-09-02T18:50:08.001Z,102450.16
2018-09-02T18:52:36.955Z,102449.48
2018-09-02T18:55:06.248Z,102444.33
2018-09-02T18:57:35.027Z,102448.91
2018-09-02T19:00:04.047Z,102459.42
2018-09-02T19:02:33.276Z,102452.11
2018-09-02T19:05:02.068Z,102454.59
2018-09-02T19:07:31.276Z,102458.91
2018-09-02T19:10:00.372Z,102465.25
2018-09-02T19:12:29.238Z,102470.92
2018-09-02T19:14:58.254Z,102466.80
2018-09-02T19:17:27.033Z,102463.19
2018-09-02T19:19:55.822Z,102463.12
2018-09-02T19:22:24.648Z,102464.08
2018-09-02T19:24:53.513Z,102462.28
2018-09-02T19:27:22.389Z,102463.47
2018-09-02T19:29:51.254Z,102460.70
2018-09-02T19:32:20.067Z,102458.89
2018-09-02T19:34:48.867Z,102458.77
2018-09-02T19:37:17.820Z,102462.00
2018-09-02T19:39:46.582Z,102463.59
2018-09-02T19:42:15.402Z,102460.97
2018-09-02T19:44:44.309Z,102460.08
2018-09-02T19:47:13.185Z,102457.39
2018-09-02T19:49:42.164Z,102458.52
2018-09-02T19:52:10.988Z,102454.36
2018-09-02T19:54:40.240Z,102447.66
2018-09-02T19:57:09.151Z,102449.43
2018-09-02T19:59:37.994Z,102443.63
2018-09-02T20:02:06.878Z,102439.05
2018-09-02T20:04:36.316Z,102442.05
2018-09-02T20:07:05.135Z,102438.47
2018-09-02T20:09:34.347Z,102440.23
2018-09-02T20:12:03.264Z,102430.39
2018-09-02T20:14:32.186Z,102437.89
2018-09-02T20:17:01.448Z,102433.66
2018-09-02T20:19:30.268Z,102440.78
2018-09-02T20:21:59.138Z,102438.01
2018-09-02T20:24:28.215Z,102438.77
2018-09-02T20:26:57.911Z,102437.01
2018-09-02T20:29:26.751Z,102437.05
2018-09-02T20:31:56.115Z,102423.58
2018-09-02T20:34:24.909Z,102430.23
2018-09-02T20:36:53.668Z,102428.44
2018-09-02T20:39:22.558Z,102422.47
2018-09-02T20:41:51.419Z,102424.23
2018-09-02T20:44:20.241Z,102422.97
2018-09-02T20:46:49.041Z,102417.74
2018-09-02T20:49:17.837Z,102425.55
2018-09-02T20:51:46.711Z,102422.28
2018-09-02T20:54:15.496Z,102426.97
2018-09-02T20:56:44.619Z,102418.55
2018-09-02T20:59:13.392Z,102415.09
2018-09-02T21:01:42.208Z,102421.01
2018-09-02T21:04:11.160Z,102415.09
2018-09-02T21:06:40.020Z,102410.16
2018-09-02T21:09:12.012Z,102411.86
2018-09-02T21:11:41.083Z,102409.82
2018-09-02T21:14:09.939Z,102405.05
2018-09-02T21:16:39.122Z,102408.11
2018-09-02T21:19:08.495Z,102408.73
2018-09-02T21:21:37.377Z,102408.61
2018-09-02T21:24:06.228Z,102414.67
2018-09-02T21:26:35.183Z,102411.59
2018-09-02T21:29:04.135Z,102407.39
2018-09-02T21:31:33.102Z,102409.69
2018-09-02T21:34:01.933Z,102416.13
2018-09-02T21:36:30.711Z,102413.83
2018-09-02T21:38:59.538Z,102415.02
2018-09-02T21:41:28.399Z,102410.20
2018-09-02T21:43:57.275Z,102406.42
2018-09-02T21:46:26.112Z,102403.38
2018-09-02T21:48:54.939Z,102399.61
2018-09-02T21:51:23.805Z,102395.03
2018-09-02T21:53:52.692Z,102394.61
2018-09-02T21:56:21.499Z,102397.23
2018-09-02T21:58:50.299Z,102388.07
2018-09-02T22:01:19.089Z,102383.22
2018-09-02T22:03:47.995Z,102385.27
2018-09-02T22:06:16.811Z,102383.17
2018-09-02T22:08:45.659Z,102374.97
2018-09-02T22:11:14.533Z,102377.73
2018-09-02T22:13:43.339Z,102380.69
2018-09-02T22:16:12.149Z,102380.63
2018-09-02T22:18:41.312Z,102377.59
2018-09-02T22:21:10.119Z,102374.30
2018-09-02T22:23:38.971Z,102368.57
2018-09-02T22:26:07.757Z,102364.77
2018-09-02T22:28:36.602Z,102367.34
2018-09-02T22:31:05.595Z,102366.77
2018-09-02T22:33:34.515Z,102368.05
2018-09-02T22:36:03.371Z,102363.47
2018-09-02T22:38:32.247Z,102371.00
2018-09-02T22:41:01.160Z,102360.27
2018-09-02T22:43:30.109Z,102365.20
2018-09-02T22:45:58.923Z,102361.77
2018-09-02T22:48:27.780Z,102358.95
2018-09-02T22:50:56.620Z,102353.98
2018-09-02T22:53:25.413Z,102348.91
2018-09-02T22:55:54.299Z,102346.38
2018-09-02T22:58:23.086Z,102347.47
2018-09-02T23:00:51.960Z,102345.66
2018-09-02T23:03:20.752Z,102347.23
2018-09-02T23:05:49.592Z,102343.13
2018-09-02T23:08:18.445Z,102347.52
2018-09-02T23:10:47.267Z,102337.98
2018-09-02T23:13:16.320Z,102337.27
2018-09-02T23:15:45.177Z,102331.26
2018-09-02T23:18:13.974Z,102335.41
2018-09-02T23:20:43.032Z,102331.26
2018-09-02T23:23:11.961Z,102330.34
2018-09-02T23:25:40.987Z,102334.77
2018-09-02T23:28:10.535Z,102321.48
2018-09-02T23:30:39.500Z,102321.95
2018-09-02T23:33:08.319Z,102318.75
2018-09-02T23:35:37.104Z,102314.79
2018-09-02T23:38:06.162Z,102318.75
2018-09-02T23:40:34.961Z,102311.59
2018-09-02T23:43:03.842Z,102306.59
2018-09-02T23:45:32.721Z,102304.06
2018-09-02T23:48:01.582Z,102294.48
2018-09-02T23:50:30.397Z,102295.59
2018-09-02T23:52:59.233Z,102301.27
2018-09-02T23:55:28.050Z,102295.98
2018-09-02T23:57:57.016Z,102287.55
